sensor_id;sensor_type;location;lat;lon;timestamp;pressure;altitude;pressure_sealevel;temperature;humidity
46408;BME280;32110;45.724;21.276;2023-02-16T00:00:21;102001.63;;;-0.32;nan
46408;BME280;32110;45.724;21.276;2023-02-16T00:02:47;101948.34;;;-0.70;nan
46408;BME280;32110;45.724;21.276;2023-02-16T00:05:29;102008.78;;;-0.35;nan
46408;BME280;32110;45.724;21.276;2023-02-16T00:07:55;102000.31;;;-0.37;nan
46408;BME280;32110;45.724;21.276;2023-02-16T00:10:22;102004.88;;;-0.41;nan
46408;BME280;32110;45.724;21.276;2023-02-16T00:12:48;102003.97;;;-0.40;nan
46408;BME280;32110;45.724;21.276;2023-02-16T00:15:33;101992.66;;;-0.50;nan
46408;BME280;32110;45.724;21.276;2023-02-16T00:17:59;102015.13;;;-0.39;nan
46408;BME280;32110;45.724;21.276;2023-02-16T00:20:27;102010.91;;;-0.40;nan
46408;BME280;32110;45.724;21.276;2023-02-16T00:22:54;102005.13;;;-0.44;nan
46408;BME280;32110;45.724;21.276;2023-02-16T00:25:20;101995.22;;;-0.50;nan
46408;BME280;32110;45.724;21.276;2023-02-16T00:27:45;102022.19;;;-0.41;nan
46408;BME280;32110;45.724;21.276;2023-02-16T00:30:16;102009.47;;;-0.45;nan
46408;BME280;32110;45.724;21.276;2023-02-16T00:32:42;102000.41;;;-0.50;nan
46408;BME280;32110;45.724;21.276;2023-02-16T00:35:17;102001.00;;;-0.47;nan
46408;BME280;32110;45.724;21.276;2023-02-16T00:37:44;102008.38;;;-0.53;nan
46408;BME280;32110;45.724;21.276;2023-02-16T00:40:12;101992.59;;;-0.61;nan
46408;BME280;32110;45.724;21.276;2023-02-16T00:42:37;101994.38;;;-0.62;nan
46408;BME280;32110;45.724;21.276;2023-02-16T00:45:04;101940.25;;;-1.00;nan
46408;BME280;32110;45.724;21.276;2023-02-16T00:47:37;102004.19;;;-0.67;nan
46408;BME280;32110;45.724;21.276;2023-02-16T00:52:49;101968.72;;;-0.89;nan
46408;BME280;32110;45.724;21.276;2023-02-16T00:55:23;101971.81;;;-0.84;nan
46408;BME280;32110;45.724;21.276;2023-02-16T01:00:48;101982.75;;;-0.80;nan
46408;BME280;32110;45.724;21.276;2023-02-16T01:03:18;101958.72;;;-0.94;nan
46408;BME280;32110;45.724;21.276;2023-02-16T01:05:44;101985.44;;;-0.82;nan
46408;BME280;32110;45.724;21.276;2023-02-16T01:08:11;101976.16;;;-0.84;nan
46408;BME280;32110;45.724;21.276;2023-02-16T01:10:55;101962.34;;;-0.96;nan
46408;BME280;32110;45.724;21.276;2023-02-16T01:13:27;101979.19;;;-0.91;nan
46408;BME280;32110;45.724;21.276;2023-02-16T01:15:53;101973.31;;;-0.93;nan
46408;BME280;32110;45.724;21.276;2023-02-16T01:18:19;101958.34;;;-1.00;nan
46408;BME280;32110;45.724;21.276;2023-02-16T01:20:45;101964.44;;;-1.01;nan
46408;BME280;32110;45.724;21.276;2023-02-16T01:23:11;101965.16;;;-0.99;nan
46408;BME280;32110;45.724;21.276;2023-02-16T01:25:37;101961.75;;;-1.00;nan
46408;BME280;32110;45.724;21.276;2023-02-16T01:28:07;101932.16;;;-1.20;nan
46408;BME280;32110;45.724;21.276;2023-02-16T01:30:40;101954.44;;;-1.06;nan
46408;BME280;32110;45.724;21.276;2023-02-16T01:33:05;101943.75;;;-1.25;nan
46408;BME280;32110;45.724;21.276;2023-02-16T01:35:32;101956.25;;;-1.19;nan
46408;BME280;32110;45.724;21.276;2023-02-16T01:37:58;101950.22;;;-1.31;nan
46408;BME280;32110;45.724;21.276;2023-02-16T01:40:36;101950.06;;;-1.30;nan
46408;BME280;32110;45.724;21.276;2023-02-16T01:43:46;101954.19;;;-1.27;nan
46408;BME280;32110;45.724;21.276;2023-02-16T01:46:31;101940.78;;;-1.32;nan
46408;BME280;32110;45.724;21.276;2023-02-16T01:49:00;101946.69;;;-1.30;nan
46408;BME280;32110;45.724;21.276;2023-02-16T01:51:36;101910.97;;;-1.49;nan
46408;BME280;32110;45.724;21.276;2023-02-16T02:02:20;101932.28;;;-1.45;nan
46408;BME280;32110;45.724;21.276;2023-02-16T02:07:51;101930.09;;;-1.52;nan
46408;BME280;32110;45.724;21.276;2023-02-16T02:10:42;101924.44;;;-1.57;nan
46408;BME280;32110;45.724;21.276;2023-02-16T02:15:46;101905.06;;;-1.75;nan
46408;BME280;32110;45.724;21.276;2023-02-16T02:18:11;101916.53;;;-1.66;nan
46408;BME280;32110;45.724;21.276;2023-02-16T02:23:36;101921.78;;;-1.68;nan
46408;BME280;32110;45.724;21.276;2023-02-16T02:29:06;101929.75;;;-1.71;nan
46408;BME280;32110;45.724;21.276;2023-02-16T02:34:41;101932.66;;;-1.76;nan
46408;BME280;32110;45.724;21.276;2023-02-16T02:37:45;101937.72;;;-1.74;nan
46408;BME280;32110;45.724;21.276;2023-02-16T02:47:43;101949.91;;;-1.76;nan
46408;BME280;32110;45.724;21.276;2023-02-16T02:53:09;101934.22;;;-1.86;nan
46408;BME280;32110;45.724;21.276;2023-02-16T02:55:41;101926.16;;;-1.94;nan
46408;BME280;32110;45.724;21.276;2023-02-16T02:58:27;101931.47;;;-1.96;nan
46408;BME280;32110;45.724;21.276;2023-02-16T03:01:16;101901.09;;;-2.05;nan
46408;BME280;32110;45.724;21.276;2023-02-16T03:03:48;101927.63;;;-1.90;nan
46408;BME280;32110;45.724;21.276;2023-02-16T03:06:25;101937.84;;;-1.88;nan
46408;BME280;32110;45.724;21.276;2023-02-16T03:08:59;101921.22;;;-1.97;nan
46408;BME280;32110;45.724;21.276;2023-02-16T03:11:27;101932.19;;;-1.94;nan
46408;BME280;32110;45.724;21.276;2023-02-16T03:14:22;101910.63;;;-2.05;nan
46408;BME280;32110;45.724;21.276;2023-02-16T03:16:53;101920.72;;;-2.02;nan
46408;BME280;32110;45.724;21.276;2023-02-16T03:19:40;101905.84;;;-2.11;nan
46408;BME280;32110;45.724;21.276;2023-02-16T03:22:25;101926.28;;;-2.08;nan
46408;BME280;32110;45.724;21.276;2023-02-16T03:25:10;101925.06;;;-2.16;nan
46408;BME280;32110;45.724;21.276;2023-02-16T03:27:54;101934.88;;;-2.08;nan
46408;BME280;32110;45.724;21.276;2023-02-16T03:30:41;101913.91;;;-2.16;nan
46408;BME280;32110;45.724;21.276;2023-02-16T03:33:07;101913.50;;;-2.23;nan
46408;BME280;32110;45.724;21.276;2023-02-16T03:35:34;101917.53;;;-2.19;nan
46408;BME280;32110;45.724;21.276;2023-02-16T03:38:00;101923.31;;;-2.15;nan
46408;BME280;32110;45.724;21.276;2023-02-16T03:40:27;101870.78;;;-2.52;nan
46408;BME280;32110;45.724;21.276;2023-02-16T03:43:03;101923.31;;;-2.15;nan
46408;BME280;32110;45.724;21.276;2023-02-16T03:45:30;101919.38;;;-2.21;nan
46408;BME280;32110;45.724;21.276;2023-02-16T03:47:56;101915.88;;;-2.20;nan
46408;BME280;32110;45.724;21.276;2023-02-16T03:50:22;101888.75;;;-2.38;nan
46408;BME280;32110;45.724;21.276;2023-02-16T03:52:47;101908.25;;;-2.21;nan
46408;BME280;32110;45.724;21.276;2023-02-16T03:55:14;101903.28;;;-2.24;nan
46408;BME280;32110;45.724;21.276;2023-02-16T03:57:42;101913.50;;;-2.23;nan
46408;BME280;32110;45.724;21.276;2023-02-16T04:00:08;101908.56;;;-2.26;nan
46408;BME280;32110;45.724;21.276;2023-02-16T04:02:34;101907.00;;;-2.28;nan
46408;BME280;32110;45.724;21.276;2023-02-16T04:04:59;101902.78;;;-2.29;nan
46408;BME280;32110;45.724;21.276;2023-02-16T04:07:25;101886.16;;;-2.38;nan
46408;BME280;32110;45.724;21.276;2023-02-16T04:09:50;101898.75;;;-2.33;nan
46408;BME280;32110;45.724;21.276;2023-02-16T04:12:15;101907.81;;;-2.28;nan
46408;BME280;32110;45.724;21.276;2023-02-16T04:14:59;101882.03;;;-2.41;nan
46408;BME280;32110;45.724;21.276;2023-02-16T04:17:25;101886.25;;;-2.40;nan
46408;BME280;32110;45.724;21.276;2023-02-16T04:19:50;101872.66;;;-2.42;nan
46408;BME280;32110;45.724;21.276;2023-02-16T04:22:15;101879.56;;;-2.42;nan
46408;BME280;32110;45.724;21.276;2023-02-16T04:24:41;101897.94;;;-2.34;nan
46408;BME280;32110;45.724;21.276;2023-02-16T04:27:06;101879.25;;;-2.50;nan
46408;BME280;32110;45.724;21.276;2023-02-16T04:29:32;101884.84;;;-2.44;nan
46408;BME280;32110;45.724;21.276;2023-02-16T04:31:57;101867.41;;;-2.53;nan
46408;BME280;32110;45.724;21.276;2023-02-16T04:34:23;101891.31;;;-2.38;nan
46408;BME280;32110;45.724;21.276;2023-02-16T04:36:48;101879.34;;;-2.52;nan
46408;BME280;32110;45.724;21.276;2023-02-16T04:39:13;101870.88;;;-2.54;nan
46408;BME280;32110;45.724;21.276;2023-02-16T04:41:39;101890.81;;;-2.43;nan
46408;BME280;32110;45.724;21.276;2023-02-16T04:44:04;101892.34;;;-2.41;nan
46408;BME280;32110;45.724;21.276;2023-02-16T04:46:30;101884.63;;;-2.41;nan
46408;BME280;32110;45.724;21.276;2023-02-16T04:48:55;101878.72;;;-2.43;nan
46408;BME280;32110;45.724;21.276;2023-02-16T04:51:21;101896.38;;;-2.37;nan
46408;BME280;32110;45.724;21.276;2023-02-16T04:53:46;101885.44;;;-2.40;nan
46408;BME280;32110;45.724;21.276;2023-02-16T04:56:12;101869.66;;;-2.48;nan
46408;BME280;32110;45.724;21.276;2023-02-16T04:58:38;101864.00;;;-2.53;nan
46408;BME280;32110;45.724;21.276;2023-02-16T05:01:03;101877.09;;;-2.44;nan
46408;BME280;32110;45.724;21.276;2023-02-16T05:03:28;101868.44;;;-2.55;nan
46408;BME280;32110;45.724;21.276;2023-02-16T05:05:54;101873.28;;;-2.51;nan
46408;BME280;32110;45.724;21.276;2023-02-16T05:08:19;101862.03;;;-2.63;nan
46408;BME280;32110;45.724;21.276;2023-02-16T05:10:45;101856.38;;;-2.68;nan
46408;BME280;32110;45.724;21.276;2023-02-16T05:13:30;101864.81;;;-2.66;nan
46408;BME280;32110;45.724;21.276;2023-02-16T05:16:14;101858.50;;;-2.62;nan
46408;BME280;32110;45.724;21.276;2023-02-16T05:18:40;101857.69;;;-2.62;nan
46408;BME280;32110;45.724;21.276;2023-02-16T05:21:05;101871.19;;;-2.59;nan
46408;BME280;32110;45.724;21.276;2023-02-16T05:23:49;101874.50;;;-2.57;nan
46408;BME280;32110;45.724;21.276;2023-02-16T05:26:14;101859.31;;;-2.61;nan
46408;BME280;32110;45.724;21.276;2023-02-16T05:28:40;101858.63;;;-2.63;nan
46408;BME280;32110;45.724;21.276;2023-02-16T05:31:05;101864.50;;;-2.61;nan
46408;BME280;32110;45.724;21.276;2023-02-16T05:33:31;101888.75;;;-2.51;nan
46408;BME280;32110;45.724;21.276;2023-02-16T05:35:56;101875.53;;;-2.59;nan
46408;BME280;32110;45.724;21.276;2023-02-16T05:38:22;101869.97;;;-2.66;nan
46408;BME280;32110;45.724;21.276;2023-02-16T05:40:47;101868.75;;;-2.73;nan
46408;BME280;32110;45.724;21.276;2023-02-16T05:43:12;101876.13;;;-2.68;nan
46408;BME280;32110;45.724;21.276;2023-02-16T05:45:40;101881.63;;;-2.73;nan
46408;BME280;32110;45.724;21.276;2023-02-16T05:48:08;101884.81;;;-2.69;nan
46408;BME280;32110;45.724;21.276;2023-02-16T05:50:33;101880.38;;;-2.67;nan
46408;BME280;32110;45.724;21.276;2023-02-16T05:52:59;101868.91;;;-2.76;nan
46408;BME280;32110;45.724;21.276;2023-02-16T05:55:24;101864.78;;;-2.79;nan
46408;BME280;32110;45.724;21.276;2023-02-16T05:57:50;101880.28;;;-2.66;nan
46408;BME280;32110;45.724;21.276;2023-02-16T06:00:16;101890.59;;;-2.53;nan
46408;BME280;32110;45.724;21.276;2023-02-16T06:02:41;101858.72;;;-2.65;nan
46408;BME280;32110;45.724;21.276;2023-02-16T06:05:07;101876.69;;;-2.50;nan
46408;BME280;32110;45.724;21.276;2023-02-16T06:07:32;101879.34;;;-2.52;nan
46408;BME280;32110;45.724;21.276;2023-02-16T06:09:57;101875.13;;;-2.53;nan
46408;BME280;32110;45.724;21.276;2023-02-16T06:12:23;101870.56;;;-2.49;nan
46408;BME280;32110;45.724;21.276;2023-02-16T06:14:48;101890.38;;;-2.37;nan
46408;BME280;32110;45.724;21.276;2023-02-16T06:17:13;101879.97;;;-2.48;nan
46408;BME280;32110;45.724;21.276;2023-02-16T06:19:39;101901.72;;;-2.40;nan
46408;BME280;32110;45.724;21.276;2023-02-16T06:22:04;101871.53;;;-2.50;nan
46408;BME280;32110;45.724;21.276;2023-02-16T06:24:30;101885.94;;;-2.35;nan
46408;BME280;32110;45.724;21.276;2023-02-16T06:26:55;101876.78;;;-2.39;nan
46408;BME280;32110;45.724;21.276;2023-02-16T06:29:20;101865.53;;;-2.38;nan
46408;BME280;32110;45.724;21.276;2023-02-16T06:31:46;101880.59;;;-2.32;nan
46408;BME280;32110;45.724;21.276;2023-02-16T06:34:11;101890.91;;;-2.19;nan
46408;BME280;32110;45.724;21.276;2023-02-16T06:36:36;101880.91;;;-2.24;nan
46408;BME280;32110;45.724;21.276;2023-02-16T06:39:02;101894.72;;;-2.12;nan
46408;BME280;32110;45.724;21.276;2023-02-16T06:41:27;101867.28;;;-2.26;nan
46408;BME280;32110;45.724;21.276;2023-02-16T06:44:03;101879.44;;;-2.15;nan
46408;BME280;32110;45.724;21.276;2023-02-16T06:46:29;101899.47;;;-2.06;nan
46408;BME280;32110;45.724;21.276;2023-02-16T06:48:54;101896.97;;;-2.07;nan
46408;BME280;32110;45.724;21.276;2023-02-16T06:51:20;101894.41;;;-2.07;nan
46408;BME280;32110;45.724;21.276;2023-02-16T06:53:46;101903.78;;;-2.06;nan
46408;BME280;32110;45.724;21.276;2023-02-16T06:56:11;101893.69;;;-2.22;nan
46408;BME280;32110;45.724;21.276;2023-02-16T06:58:37;101901.72;;;-2.14;nan
46408;BME280;32110;45.724;21.276;2023-02-16T07:01:02;101915.25;;;-2.10;nan
46408;BME280;32110;45.724;21.276;2023-02-16T07:03:28;101908.22;;;-2.08;nan
46408;BME280;32110;45.724;21.276;2023-02-16T07:05:53;101882.44;;;-2.21;nan
46408;BME280;32110;45.724;21.276;2023-02-16T07:08:18;101906.28;;;-2.05;nan
46408;BME280;32110;45.724;21.276;2023-02-16T07:10:45;101915.13;;;-1.83;nan
46408;BME280;32110;45.724;21.276;2023-02-16T07:13:11;101913.44;;;-1.72;nan
46408;BME280;32110;45.724;21.276;2023-02-16T07:15:36;101897.13;;;-1.72;nan
46408;BME280;32110;45.724;21.276;2023-02-16T07:18:02;101914.75;;;-1.53;nan
46408;BME280;32110;45.724;21.276;2023-02-16T07:20:28;101912.44;;;-1.45;nan
46408;BME280;32110;45.724;21.276;2023-02-16T07:22:53;101908.91;;;-1.44;nan
46408;BME280;32110;45.724;21.276;2023-02-16T07:25:19;101912.69;;;-1.37;nan
46408;BME280;32110;45.724;21.276;2023-02-16T07:27:44;101921.47;;;-1.26;nan
46408;BME280;32110;45.724;21.276;2023-02-16T07:30:11;101907.91;;;-1.30;nan
46408;BME280;32110;45.724;21.276;2023-02-16T07:32:37;101918.53;;;-1.22;nan
46408;BME280;32110;45.724;21.276;2023-02-16T07:35:03;101865.69;;;-1.42;nan
46408;BME280;32110;45.724;21.276;2023-02-16T07:37:29;101915.56;;;-1.04;nan
46408;BME280;32110;45.724;21.276;2023-02-16T07:39:55;101893.09;;;-1.04;nan
46408;BME280;32110;45.724;21.276;2023-02-16T07:42:21;101897.38;;;-0.92;nan
46408;BME280;32110;45.724;21.276;2023-02-16T07:44:46;101899.19;;;-0.81;nan
46408;BME280;32110;45.724;21.276;2023-02-16T07:47:14;101882.94;;;-0.83;nan
46408;BME280;32110;45.724;21.276;2023-02-16T07:49:40;101896.97;;;-0.63;nan
46408;BME280;32110;45.724;21.276;2023-02-16T07:52:05;101901.56;;;-0.55;nan
46408;BME280;32110;45.724;21.276;2023-02-16T07:54:31;101906.78;;;-0.44;nan
46408;BME280;32110;45.724;21.276;2023-02-16T07:56:57;101883.97;;;-0.50;nan
46408;BME280;32110;45.724;21.276;2023-02-16T07:59:22;101897.38;;;-0.34;nan
46408;BME280;32110;45.724;21.276;2023-02-16T08:01:48;101890.56;;;-0.24;nan
46408;BME280;32110;45.724;21.276;2023-02-16T08:04:13;101870.78;;;-0.25;nan
46408;BME280;32110;45.724;21.276;2023-02-16T08:06:39;101875.75;;;-0.22;nan
46408;BME280;32110;45.724;21.276;2023-02-16T08:09:04;101886.53;;;0.17;nan
46408;BME280;32110;45.724;21.276;2023-02-16T08:11:30;101892.75;;;0.37;nan
46408;BME280;32110;45.724;21.276;2023-02-16T08:13:57;101892.97;;;0.46;nan
46408;BME280;32110;45.724;21.276;2023-02-16T08:16:30;101902.84;;;0.52;nan
46408;BME280;32110;45.724;21.276;2023-02-16T08:18:56;101895.75;;;0.54;nan
46408;BME280;32110;45.724;21.276;2023-02-16T08:21:26;101894.44;;;0.59;nan
46408;BME280;32110;45.724;21.276;2023-02-16T08:24:04;101890.03;;;0.71;nan
46408;BME280;32110;45.724;21.276;2023-02-16T08:26:38;101895.53;;;0.89;nan
46408;BME280;32110;45.724;21.276;2023-02-16T08:29:06;101884.09;;;0.92;nan
46408;BME280;32110;45.724;21.276;2023-02-16T08:31:34;101850.69;;;0.77;nan
46408;BME280;32110;45.724;21.276;2023-02-16T08:34:03;101857.50;;;0.99;nan
46408;BME280;32110;45.724;21.276;2023-02-16T08:36:35;101891.56;;;1.27;nan
46408;BME280;32110;45.724;21.276;2023-02-16T08:39:10;101886.56;;;1.35;nan
46408;BME280;32110;45.724;21.276;2023-02-16T08:41:36;101870.59;;;1.40;nan
46408;BME280;32110;45.724;21.276;2023-02-16T08:44:03;101886.41;;;1.58;nan
46408;BME280;32110;45.724;21.276;2023-02-16T08:46:30;101894.97;;;1.79;nan
46408;BME280;32110;45.724;21.276;2023-02-16T08:48:57;101898.69;;;1.86;nan
46408;BME280;32110;45.724;21.276;2023-02-16T08:51:25;101900.38;;;1.97;nan
46408;BME280;32110;45.724;21.276;2023-02-16T08:53:50;101905.34;;;2.10;nan
46408;BME280;32110;45.724;21.276;2023-02-16T08:56:17;101899.34;;;2.19;nan
46408;BME280;32110;45.724;21.276;2023-02-16T08:58:43;101895.00;;;2.29;nan
46408;BME280;32110;45.724;21.276;2023-02-16T09:01:09;101889.56;;;2.42;nan
46408;BME280;32110;45.724;21.276;2023-02-16T09:03:36;101898.59;;;2.58;nan
46408;BME280;32110;45.724;21.276;2023-02-16T09:06:07;101898.50;;;2.69;nan
46408;BME280;32110;45.724;21.276;2023-02-16T09:08:33;101894.66;;;2.83;nan
46408;BME280;32110;45.724;21.276;2023-02-16T09:11:03;101878.91;;;2.84;nan
46408;BME280;32110;45.724;21.276;2023-02-16T09:13:29;101874.09;;;2.99;nan
46408;BME280;32110;45.724;21.276;2023-02-16T09:16:03;101879.69;;;3.24;nan
46408;BME280;32110;45.724;21.276;2023-02-16T09:18:29;101888.97;;;3.36;nan
46408;BME280;32110;45.724;21.276;2023-02-16T09:20:54;101873.88;;;3.39;nan
46408;BME280;32110;45.724;21.276;2023-02-16T09:23:21;101880.44;;;3.53;nan
46408;BME280;32110;45.724;21.276;2023-02-16T09:25:46;101878.34;;;3.67;nan
46408;BME280;32110;45.724;21.276;2023-02-16T09:28:12;101861.06;;;3.66;nan
46408;BME280;32110;45.724;21.276;2023-02-16T09:30:38;101863.34;;;3.78;nan
46408;BME280;32110;45.724;21.276;2023-02-16T09:33:04;101863.44;;;3.87;nan
46408;BME280;32110;45.724;21.276;2023-02-16T09:35:30;101881.28;;;4.09;nan
46408;BME280;32110;45.724;21.276;2023-02-16T09:37:56;101862.22;;;4.09;nan
46408;BME280;32110;45.724;21.276;2023-02-16T09:40:22;101869.25;;;4.26;nan
46408;BME280;32110;45.724;21.276;2023-02-16T09:45:16;101859.66;;;4.44;nan
46408;BME280;32110;45.724;21.276;2023-02-16T09:47:44;101867.78;;;4.59;nan
46408;BME280;32110;45.724;21.276;2023-02-16T09:52:41;101868.16;;;4.82;nan
46408;BME280;32110;45.724;21.276;2023-02-16T09:55:16;101868.88;;;4.93;nan
46408;BME280;32110;45.724;21.276;2023-02-16T10:05:51;101869.38;;;5.40;nan
46408;BME280;32110;45.724;21.276;2023-02-16T10:08:25;101866.34;;;5.53;nan
46408;BME280;32110;45.724;21.276;2023-02-16T10:13:37;101857.63;;;5.70;nan
46408;BME280;32110;45.724;21.276;2023-02-16T10:16:05;101858.50;;;5.87;nan
46408;BME280;32110;45.724;21.276;2023-02-16T10:18:38;101844.78;;;5.93;nan
46408;BME280;32110;45.724;21.276;2023-02-16T10:21:11;101842.91;;;6.04;nan
46408;BME280;32110;45.724;21.276;2023-02-16T10:23:44;101828.19;;;6.03;nan
46408;BME280;32110;45.724;21.276;2023-02-16T10:26:21;101836.06;;;6.19;nan
46408;BME280;32110;45.724;21.276;2023-02-16T10:28:58;101839.53;;;6.36;nan
46408;BME280;32110;45.724;21.276;2023-02-16T10:45:50;101819.19;;;7.20;nan
46408;BME280;32110;45.724;21.276;2023-02-16T10:48:16;101813.97;;;7.20;nan
46408;BME280;32110;45.724;21.276;2023-02-16T10:55:56;101804.06;;;7.46;nan
46408;BME280;32110;45.724;21.276;2023-02-16T13:45:45;101622.91;;;11.12;nan
46408;BME280;32110;45.724;21.276;2023-02-16T18:08:16;101568.50;;;6.66;nan
